Time;durP1;ratioP1;P1;durP2;ratioP2;P2;SDS_P1;SDS_P2;PMS_P1;PMS_P2;Temp;Humidity;BMP_temperature;BMP_pressure;BME280_temperature;BME280_humidity;BME280_pressure;Samples;Min_cycle;Max_cycle;Signal;HPM_P1;HPM_P2
2024/02/03 00:01:30;;;;;;;21.10;12.20;;;;;;;5.06;100.00;100043.82;106748;1254;100129;-81
2024/02/03 00:04:16;;;;;;;20.30;12.40;;;;;;;5.09;100.00;100044.55;106647;1254;100346;-82
2024/02/03 00:07:01;;;;;;;25.90;13.80;;;;;;;5.11;100.00;100046.62;106475;1254;98973;-80
2024/02/03 00:09:47;;;;;;;23.90;12.70;;;;;;;5.13;100.00;100041.17;106743;1257;97158;-81
2024/02/03 00:12:33;;;;;;;20.80;12.30;;;;;;;5.15;100.00;100045.73;106504;1253;97128;-81
2024/02/03 00:15:19;;;;;;;18.80;11.10;;;;;;;5.17;100.00;100043.73;106697;1254;100058;-81
2024/02/03 00:18:04;;;;;;;19.00;12.00;;;;;;;5.19;100.00;100037.34;106362;1254;100401;-81
2024/02/03 00:20:50;;;;;;;17.50;9.60;;;;;;;5.21;100.00;100031.98;106545;1257;97906;-81
2024/02/03 00:23:35;;;;;;;21.10;11.60;;;;;;;5.22;100.00;100027.36;106559;1254;96606;-80
2024/02/03 00:26:21;;;;;;;24.00;11.80;;;;;;;5.24;100.00;100029.15;106752;1254;96419;-81
2024/02/03 00:29:06;;;;;;;20.90;11.50;;;;;;;5.25;100.00;100022.95;106602;1253;100065;-81
2024/02/03 00:31:52;;;;;;;22.80;12.00;;;;;;;5.27;100.00;100026.17;106625;1253;100410;-80
2024/02/03 00:34:37;;;;;;;18.40;10.90;;;;;;;5.28;100.00;100030.41;106512;1253;98971;-83
2024/02/03 00:37:23;;;;;;;19.80;11.80;;;;;;;5.30;100.00;100030.21;106587;1257;96730;-82
2024/02/03 00:40:10;;;;;;;16.00;12.10;;;;;;;5.32;100.00;100029.41;106573;1257;96981;-81
2024/02/03 00:42:55;;;;;;;28.70;19.50;;;;;;;5.35;100.00;100021.71;106530;1254;100071;-82
2024/02/03 00:45:41;;;;;;;20.40;15.00;;;;;;;5.37;100.00;100010.63;106719;1256;100325;-80
2024/02/03 00:48:27;;;;;;;21.70;13.30;;;;;;;5.39;100.00;100007.60;106629;1253;97694;-81
2024/02/03 00:51:12;;;;;;;23.60;13.80;;;;;;;5.41;100.00;100001.90;106396;1259;96679;-81
2024/02/03 00:53:58;;;;;;;21.70;13.30;;;;;;;5.43;100.00;99995.52;106509;1254;97059;-80
2024/02/03 00:56:44;;;;;;;23.80;12.40;;;;;;;5.45;100.00;99993.72;106543;1252;101121;-81
2024/02/03 00:59:29;;;;;;;18.00;12.30;;;;;;;5.46;100.00;99989.06;106427;1257;99214;-81
2024/02/03 01:02:15;;;;;;;21.00;12.20;;;;;;;5.49;100.00;99982.22;106495;1254;99095;-81
2024/02/03 01:05:01;;;;;;;18.10;11.60;;;;;;;5.52;100.00;99977.86;106184;1254;142717;-81
2024/02/03 01:07:46;;;;;;;14.70;10.80;;;;;;;5.55;100.00;99970.13;106361;1254;96469;-81
2024/02/03 01:10:31;;;;;;;15.00;11.00;;;;;;;5.58;100.00;99962.70;106783;1254;101185;-82
2024/02/03 01:13:17;;;;;;;19.70;11.50;;;;;;;5.60;100.00;99963.11;106806;1253;100422;-82
2024/02/03 01:16:02;;;;;;;15.70;10.30;;;;;;;5.63;100.00;99967.08;106356;1253;98823;-81
2024/02/03 01:18:48;;;;;;;15.50;10.80;;;;;;;5.66;100.00;99974.21;106347;1252;97515;-81
2024/02/03 01:21:33;;;;;;;12.60;10.00;;;;;;;5.69;100.00;99974.56;106545;1252;96660;-82
2024/02/03 01:24:19;;;;;;;16.10;10.50;;;;;;;5.72;100.00;99977.52;106485;1253;100055;-80
2024/02/03 01:27:05;;;;;;;16.50;10.60;;;;;;;5.75;100.00;99980.63;106442;1254;99089;-81
2024/02/03 01:29:51;;;;;;;17.30;11.30;;;;;;;5.77;100.00;99989.18;106408;1253;98778;-80
2024/02/03 01:32:38;;;;;;;17.50;11.20;;;;;;;5.81;100.00;99989.67;106456;1256;96615;-82
2024/02/03 01:35:23;;;;;;;17.10;11.00;;;;;;;5.84;100.00;99984.41;106452;1252;97127;-80
2024/02/03 01:38:09;;;;;;;14.20;10.50;;;;;;;5.86;100.00;99978.09;106553;1255;101254;-82
2024/02/03 01:40:55;;;;;;;13.10;10.00;;;;;;;5.89;100.00;99967.65;106701;1256;99436;-81
2024/02/03 01:43:40;;;;;;;14.20;10.90;;;;;;;5.93;100.00;99977.83;106445;1253;97731;-82
2024/02/03 01:46:26;;;;;;;19.00;11.10;;;;;;;5.96;100.00;99982.65;106389;1254;96854;-80
2024/02/03 01:49:12;;;;;;;18.70;12.80;;;;;;;5.99;100.00;99982.30;106566;1253;96501;-81
2024/02/03 01:51:58;;;;;;;16.60;11.60;;;;;;;6.02;100.00;99979.34;106448;1254;100117;-81
2024/02/03 01:54:45;;;;;;;16.30;10.70;;;;;;;6.05;100.00;99978.83;106453;1254;99208;-83
2024/02/03 01:57:32;;;;;;;17.00;11.40;;;;;;;6.07;100.00;99980.30;106551;1254;98681;-80
2024/02/03 02:00:18;;;;;;;16.20;11.70;;;;;;;6.09;100.00;99984.28;106436;1257;97029;-81
2024/02/03 02:03:04;;;;;;;16.90;12.50;;;;;;;6.11;100.00;99976.50;106706;1254;97290;-83
2024/02/03 02:05:50;;;;;;;21.50;14.20;;;;;;;6.13;100.00;99978.39;106630;1255;101784;-81
2024/02/03 02:08:37;;;;;;;25.40;16.10;;;;;;;6.15;100.00;99974.58;106511;1257;99173;-81
2024/02/03 02:11:24;;;;;;;42.70;23.00;;;;;;;6.17;100.00;99974.57;106649;1254;97812;-82
2024/02/03 02:14:09;;;;;;;25.90;15.80;;;;;;;6.19;100.00;99979.13;107106;1254;96537;-81
2024/02/03 02:16:57;;;;;;;76.60;34.70;;;;;;;6.21;100.00;99974.64;106404;1254;96520;-81
2024/02/03 02:19:43;;;;;;;29.30;16.00;;;;;;;6.23;100.00;99969.59;106368;1253;101954;-81
2024/02/03 02:22:29;;;;;;;21.20;14.10;;;;;;;6.25;100.00;99966.19;106439;1253;99247;-81
2024/02/03 02:25:14;;;;;;;26.00;16.70;;;;;;;6.27;100.00;99966.38;106278;1253;98364;-81
2024/02/03 02:28:00;;;;;;;16.00;11.50;;;;;;;6.28;100.00;99961.82;106207;1254;96519;-81
2024/02/03 02:30:46;;;;;;;14.20;11.90;;;;;;;6.30;100.00;99959.69;106305;1254;96612;-82
2024/02/03 02:33:31;;;;;;;15.60;11.00;;;;;;;6.31;100.00;99956.58;106241;1255;100064;-81
2024/02/03 02:36:17;;;;;;;14.30;9.90;;;;;;;6.32;100.00;99956.95;106390;1268;99088;-80
2024/02/03 02:39:04;;;;;;;11.50;9.40;;;;;;;6.33;100.00;99953.21;106428;1257;97754;-80
2024/02/03 02:41:50;;;;;;;14.60;9.70;;;;;;;6.35;100.00;99943.95;106601;1253;96594;-81
2024/02/03 02:44:35;;;;;;;12.70;9.00;;;;;;;6.36;100.00;99937.61;106669;1254;97150;-82
2024/02/03 02:47:21;;;;;;;13.50;9.40;;;;;;;6.38;100.00;99939.03;106381;1255;100908;-82
2024/02/03 02:50:08;;;;;;;12.20;9.70;;;;;;;6.39;100.00;99946.94;106531;1255;100370;-82
2024/02/03 02:52:54;;;;;;;14.40;10.10;;;;;;;6.39;100.00;99940.28;106740;1255;97804;-82
2024/02/03 02:55:40;;;;;;;13.20;9.20;;;;;;;6.40;100.00;99937.95;106538;1251;97189;-81
2024/02/03 02:58:25;;;;;;;10.50;8.30;;;;;;;6.40;100.00;99945.66;106456;1254;96809;-81
2024/02/03 03:01:11;;;;;;;10.90;8.10;;;;;;;6.41;100.00;99946.25;106481;1253;100977;-81
2024/02/03 03:03:57;;;;;;;11.00;8.60;;;;;;;6.42;100.00;99947.20;106575;1251;100312;-82
2024/02/03 03:06:42;;;;;;;9.60;7.80;;;;;;;6.43;100.00;99944.67;106670;1257;97767;-81
2024/02/03 03:09:28;;;;;;;12.20;9.40;;;;;;;6.43;100.00;99943.21;106443;1253;96623;-82
2024/02/03 03:12:14;;;;;;;11.20;8.60;;;;;;;6.44;100.00;99942.59;106569;1253;97064;-81
2024/02/03 03:15:00;;;;;;;13.30;8.30;;;;;;;6.45;100.00;99948.50;106804;1253;100043;-81
2024/02/03 03:17:45;;;;;;;11.30;8.50;;;;;;;6.46;100.00;99946.55;106721;1254;99791;-82
2024/02/03 03:20:30;;;;;;;10.00;7.90;;;;;;;6.48;100.00;99952.42;106425;1251;97697;-80
2024/02/03 03:23:16;;;;;;;9.70;8.10;;;;;;;6.49;100.00;99950.90;106376;1253;96649;-81
2024/02/03 03:26:02;;;;;;;9.00;7.70;;;;;;;6.51;100.00;99953.34;106630;1251;97050;-81
2024/02/03 03:28:48;;;;;;;15.20;9.00;;;;;;;6.52;100.00;99952.43;106672;1252;99964;-82
2024/02/03 03:31:34;;;;;;;12.50;8.70;;;;;;;6.54;100.00;99953.09;106601;1252;100041;-82
2024/02/03 03:34:20;;;;;;;11.10;8.40;;;;;;;6.56;100.00;99950.21;106749;1251;97737;-81
2024/02/03 03:37:05;;;;;;;11.80;9.20;;;;;;;6.58;100.00;99947.88;106460;1253;97203;-80
2024/02/03 03:39:52;;;;;;;15.40;11.10;;;;;;;6.60;100.00;99954.50;106699;1253;97083;-81
2024/02/03 03:42:38;;;;;;;12.40;9.00;;;;;;;6.62;100.00;99959.27;106734;1251;101779;-81
2024/02/03 03:45:23;;;;;;;16.50;10.90;;;;;;;6.64;100.00;99960.95;106876;1251;99653;-82
2024/02/03 03:48:10;;;;;;;19.00;10.20;;;;;;;6.66;100.00;99961.05;106718;1256;98159;-81
2024/02/03 03:50:55;;;;;;;15.60;10.10;;;;;;;6.68;100.00;99959.60;106553;1255;96601;-82
2024/02/03 03:53:41;;;;;;;38.20;16.50;;;;;;;6.70;100.00;99961.13;106475;1251;97203;-82
2024/02/03 03:56:27;;;;;;;13.70;9.40;;;;;;;6.72;100.00;99957.32;106515;1257;100092;-82
2024/02/03 03:59:12;;;;;;;11.70;8.20;;;;;;;6.75;100.00;99954.77;106453;1251;100584;-82
2024/02/03 04:01:57;;;;;;;11.40;7.90;;;;;;;6.77;100.00;99957.71;106589;1256;97723;-81
2024/02/03 04:04:43;;;;;;;11.50;6.90;;;;;;;6.78;100.00;99960.39;106544;1251;97477;-81
2024/02/03 04:07:28;;;;;;;10.00;7.40;;;;;;;6.80;100.00;99959.27;106905;1253;96645;-81
2024/02/03 04:10:14;;;;;;;8.50;6.60;;;;;;;6.82;100.00;99958.88;106795;1255;99921;-81
2024/02/03 04:12:59;;;;;;;7.70;5.90;;;;;;;6.83;100.00;99955.67;106539;1252;100330;-82
2024/02/03 04:15:45;;;;;;;7.30;5.50;;;;;;;6.85;100.00;99953.16;106521;1256;97922;-83
2024/02/03 04:18:31;;;;;;;7.10;5.70;;;;;;;6.88;100.00;99953.20;106602;1251;96585;-81
2024/02/03 04:21:17;;;;;;;5.90;4.90;;;;;;;6.90;100.00;99951.27;106587;1252;96475;-82
2024/02/03 04:24:02;;;;;;;5.50;4.70;;;;;;;6.93;100.00;99951.16;106336;1252;100857;-81
2024/02/03 04:26:48;;;;;;;6.60;4.80;;;;;;;6.95;100.00;99947.86;106517;1253;99817;-81
2024/02/03 04:29:34;;;;;;;5.20;4.60;;;;;;;6.98;100.00;99951.09;106599;1252;97723;-81
2024/02/03 04:32:20;;;;;;;4.70;4.20;;;;;;;7.01;100.00;99954.66;106712;1252;96555;-82
2024/02/03 04:35:06;;;;;;;5.40;4.60;;;;;;;7.04;100.00;99952.54;106457;1257;97151;-80
2024/02/03 04:37:52;;;;;;;6.00;4.20;;;;;;;7.07;100.00;99953.05;106665;1253;100052;-81
2024/02/03 04:40:37;;;;;;;5.50;4.20;;;;;;;7.10;100.00;99949.91;106815;1252;100377;-81
2024/02/03 04:43:22;;;;;;;6.50;5.20;;;;;;;7.12;100.00;99944.30;106479;1253;97724;-80
2024/02/03 04:46:08;;;;;;;4.80;3.70;;;;;;;7.15;100.00;99944.08;106637;1252;96671;-82
2024/02/03 04:48:53;;;;;;;5.60;4.00;;;;;;;7.18;100.00;99935.71;106570;1253;97148;-83
2024/02/03 04:51:38;;;;;;;4.50;3.50;;;;;;;7.22;100.00;99937.83;106373;1258;99980;-83
2024/02/03 04:54:24;;;;;;;4.30;3.50;;;;;;;7.25;100.00;99931.40;106620;1256;99080;-81
2024/02/03 04:57:10;;;;;;;4.00;3.40;;;;;;;7.28;100.00;99926.94;106363;1258;97689;-82
2024/02/03 04:59:56;;;;;;;4.60;3.80;;;;;;;7.31;100.00;99935.48;106629;1256;96517;-81
2024/02/03 05:02:42;;;;;;;4.10;3.70;;;;;;;7.34;100.00;99942.36;106524;1257;97141;-81
2024/02/03 05:05:27;;;;;;;5.90;4.30;;;;;;;7.36;100.00;99943.87;106484;1252;100506;-81
2024/02/03 05:08:14;;;;;;;5.40;4.00;;;;;;;7.38;100.00;99939.72;106391;1258;99864;-81
2024/02/03 05:11:00;;;;;;;5.30;3.30;;;;;;;7.41;100.00;99940.23;106659;1257;98326;-81
2024/02/03 05:13:45;;;;;;;4.40;4.00;;;;;;;7.44;100.00;99940.05;106379;1256;97964;-83
2024/02/03 05:16:30;;;;;;;9.70;5.00;;;;;;;7.47;100.00;99937.06;106647;1251;97029;-82
2024/02/03 05:19:16;;;;;;;5.90;3.80;;;;;;;7.50;100.00;99936.29;106636;1253;99990;-82
2024/02/03 05:22:01;;;;;;;6.90;4.40;;;;;;;7.53;100.00;99929.70;106830;1257;99123;-82
2024/02/03 05:24:47;;;;;;;8.40;5.20;;;;;;;7.56;100.00;99933.71;106738;1251;99123;-82
2024/02/03 05:27:33;;;;;;;23.00;10.40;;;;;;;7.58;100.00;99936.09;106739;1251;96561;-80
2024/02/03 05:30:18;;;;;;;11.90;5.80;;;;;;;7.60;100.00;99939.80;106719;1253;96574;-82
2024/02/03 05:33:04;;;;;;;5.00;3.90;;;;;;;7.63;100.00;99956.65;106538;1255;100795;-82
2024/02/03 05:35:50;;;;;;;4.60;3.90;;;;;;;7.65;100.00;99964.35;106639;1252;100312;-81
2024/02/03 05:38:35;;;;;;;4.10;3.60;;;;;;;7.66;100.00;99962.45;106481;1253;97808;-82
2024/02/03 05:41:20;;;;;;;3.20;2.90;;;;;;;7.68;100.00;99966.29;106457;1253;96547;-82
2024/02/03 05:44:06;;;;;;;4.30;3.50;;;;;;;7.70;100.00;99974.39;106706;1253;97150;-80
2024/02/03 05:46:51;;;;;;;3.00;2.70;;;;;;;7.72;100.00;99982.53;106790;1255;100107;-81
2024/02/03 05:49:37;;;;;;;3.20;2.90;;;;;;;7.73;100.00;99989.13;106794;1257;99164;-81
2024/02/03 05:52:22;;;;;;;3.00;2.70;;;;;;;7.75;100.00;99991.64;106605;1253;97833;-80
2024/02/03 05:55:08;;;;;;;3.70;3.30;;;;;;;7.75;100.00;99991.80;106507;1257;96578;-82
2024/02/03 05:57:55;;;;;;;3.90;2.70;;;;;;;7.74;100.00;99988.81;106718;1253;96397;-81
2024/02/03 06:00:40;;;;;;;3.70;3.20;;;;;;;7.74;100.00;99994.35;106601;1253;99979;-82
2024/02/03 06:03:26;;;;;;;5.00;3.40;;;;;;;7.74;100.00;99996.67;106541;1254;100535;-82
2024/02/03 06:06:11;;;;;;;3.80;3.00;;;;;;;7.74;100.00;99997.25;106437;1253;97792;-81
2024/02/03 06:08:57;;;;;;;4.20;3.40;;;;;;;7.73;100.00;99997.52;106567;1254;97014;-81
2024/02/03 06:11:42;;;;;;;4.30;3.50;;;;;;;7.73;100.00;99997.55;106537;1257;97144;-79
2024/02/03 06:14:28;;;;;;;4.40;3.60;;;;;;;7.72;100.00;99991.19;106567;1253;101229;-82
2024/02/03 06:17:14;;;;;;;8.30;4.20;;;;;;;7.71;100.00;99989.38;106560;1253;98940;-82
2024/02/03 06:19:59;;;;;;;6.10;4.10;;;;;;;7.69;100.00;99989.39;106826;1252;97723;-82
2024/02/03 06:22:45;;;;;;;8.00;4.10;;;;;;;7.68;100.00;99980.38;106729;1253;96664;-82
2024/02/03 06:25:30;;;;;;;7.00;4.40;;;;;;;7.66;100.00;99990.90;106656;1258;95966;-81
2024/02/03 06:28:15;;;;;;;4.80;4.10;;;;;;;7.64;100.00;99994.35;106679;1256;100031;-80
2024/02/03 06:31:01;;;;;;;6.00;4.20;;;;;;;7.62;100.00;99996.33;106765;1256;99121;-81
2024/02/03 06:33:46;;;;;;;5.60;4.50;;;;;;;7.61;100.00;99995.42;106563;1257;98475;-82
2024/02/03 06:36:32;;;;;;;7.60;4.90;;;;;;;7.60;100.00;99995.92;106455;1257;96721;-81
2024/02/03 06:39:17;;;;;;;6.70;5.30;;;;;;;7.60;100.00;99994.62;106482;1258;96809;-82
2024/02/03 06:42:03;;;;;;;7.10;6.00;;;;;;;7.60;100.00;99982.56;106521;1253;100000;-82
2024/02/03 06:44:48;;;;;;;8.40;5.70;;;;;;;7.61;100.00;99977.66;106746;1259;99307;-83
2024/02/03 06:47:34;;;;;;;8.60;5.70;;;;;;;7.61;100.00;99989.88;106620;1253;97807;-83
2024/02/03 06:50:19;;;;;;;18.40;10.70;;;;;;;7.62;100.00;100004.90;106482;1253;96680;-81
2024/02/03 06:53:05;;;;;;;37.10;15.50;;;;;;;7.63;100.00;100013.82;106740;1255;97407;-81
2024/02/03 06:55:51;;;;;;;49.40;19.60;;;;;;;7.64;100.00;100012.48;106739;1251;101694;-82
2024/02/03 06:58:36;;;;;;;37.90;14.90;;;;;;;7.64;100.00;100019.20;106605;1251;100219;-81
2024/02/03 07:01:22;;;;;;;51.90;16.70;;;;;;;7.65;100.00;100026.02;106509;1253;97750;-82
2024/02/03 07:04:07;;;;;;;152.50;37.90;;;;;;;7.66;100.00;100020.78;106614;1252;97896;-81
2024/02/03 07:06:53;;;;;;;118.80;31.90;;;;;;;7.66;100.00;100019.45;106610;1253;97114;-82
2024/02/03 07:09:38;;;;;;;63.60;20.30;;;;;;;7.67;100.00;100016.16;106601;1258;100209;-81
2024/02/03 07:12:27;;;;;;;57.40;19.90;;;;;;;7.69;100.00;100016.36;106652;1253;99712;-83
2024/02/03 07:15:13;;;;;;;122.10;37.60;;;;;;;7.69;100.00;100007.36;106555;1253;97760;-81
2024/02/03 07:17:59;;;;;;;93.00;29.90;;;;;;;7.70;100.00;100014.88;106638;1253;96599;-80
2024/02/03 07:20:44;;;;;;;104.20;34.10;;;;;;;7.71;100.00;100025.05;106595;1253;96617;-82
2024/02/03 07:23:30;;;;;;;171.80;46.50;;;;;;;7.72;100.00;100023.15;106667;1253;100030;-81
2024/02/03 07:26:16;;;;;;;141.80;39.80;;;;;;;7.73;100.00;100023.20;106833;1255;100830;-82
2024/02/03 07:29:03;;;;;;;85.50;29.90;;;;;;;7.75;100.00;100023.58;106412;1262;98813;-82
2024/02/03 07:31:49;;;;;;;97.10;29.60;;;;;;;7.77;100.00;100023.88;106739;1251;96502;-82
2024/02/03 07:34:34;;;;;;;69.60;26.30;;;;;;;7.78;100.00;100019.95;106601;1253;96601;-81
2024/02/03 07:37:20;;;;;;;49.40;22.00;;;;;;;7.80;100.00;100017.80;106740;1253;101323;-81
2024/02/03 07:40:06;;;;;;;62.50;24.50;;;;;;;7.82;100.00;100014.34;106766;1253;100165;-83
2024/02/03 07:42:52;;;;;;;116.90;37.00;;;;;;;7.83;100.00;100013.90;106533;1251;98783;-81
2024/02/03 07:45:37;;;;;;;75.30;28.60;;;;;;;7.84;100.00;100015.20;106571;1258;95855;-80
2024/02/03 07:48:22;;;;;;;116.80;37.70;;;;;;;7.86;100.00;100009.60;106789;1257;96382;-81
2024/02/03 07:51:08;;;;;;;162.40;49.90;;;;;;;7.88;100.00;100011.85;106542;1253;100652;-81
2024/02/03 07:53:53;;;;;;;106.10;35.90;;;;;;;7.89;100.00;100010.02;106565;1258;99901;-80
2024/02/03 07:56:39;;;;;;;69.90;25.40;;;;;;;7.89;100.00;100011.89;106561;1260;98854;-81
2024/02/03 07:59:26;;;;;;;96.80;32.80;;;;;;;7.90;100.00;100012.49;106606;1253;96518;-80
2024/02/03 08:02:12;;;;;;;155.40;44.00;;;;;;;7.91;100.00;100013.48;106593;1256;96621;-82
2024/02/03 08:04:57;;;;;;;175.20;45.90;;;;;;;7.92;100.00;100012.85;106539;1257;100040;-81
2024/02/03 08:07:43;;;;;;;80.90;32.40;;;;;;;7.94;100.00;100014.42;106922;1251;99945;-82
2024/02/03 08:10:28;;;;;;;62.10;27.00;;;;;;;7.95;100.00;100015.14;106551;1253;99359;-80
2024/02/03 08:13:14;;;;;;;118.30;38.00;;;;;;;7.97;100.00;100012.46;106732;1253;96702;-81
2024/02/03 08:16:00;;;;;;;163.40;52.80;;;;;;;7.99;100.00;100013.64;106534;1258;97032;-80
2024/02/03 08:18:45;;;;;;;104.80;38.90;;;;;;;8.02;100.00;100014.88;106731;1257;101366;-82
2024/02/03 08:21:31;;;;;;;163.40;52.20;;;;;;;8.04;100.00;100008.87;106711;1253;100843;-82
2024/02/03 08:24:16;;;;;;;85.10;36.60;;;;;;;8.06;100.00;100009.67;106688;1257;98582;-81
2024/02/03 08:27:03;;;;;;;55.80;24.10;;;;;;;8.08;100.00;100016.18;106754;1252;96569;-81
2024/02/03 08:29:48;;;;;;;81.70;30.60;;;;;;;8.10;100.00;100015.23;106781;1256;97102;-82
2024/02/03 08:32:34;;;;;;;46.60;22.90;;;;;;;8.12;100.00;100017.42;106750;1253;100142;-81
2024/02/03 08:35:19;;;;;;;30.30;17.00;;;;;;;8.15;100.00;100027.44;106788;1257;99171;-81
2024/02/03 08:38:05;;;;;;;144.60;43.60;;;;;;;8.17;100.00;100036.05;106767;1253;99076;-81
2024/02/03 08:40:52;;;;;;;104.40;32.90;;;;;;;8.19;100.00;100041.52;106713;1251;96497;-80
2024/02/03 08:43:37;;;;;;;35.50;17.00;;;;;;;8.21;100.00;100042.90;106829;1253;97027;-82
2024/02/03 08:46:23;;;;;;;54.10;20.90;;;;;;;8.22;100.00;100043.10;106661;1255;101903;-82
2024/02/03 08:49:09;;;;;;;51.80;18.00;;;;;;;8.22;100.00;100045.97;106527;1253;99184;-81
2024/02/03 08:51:54;;;;;;;114.40;29.80;;;;;;;8.22;100.00;100046.66;106516;1253;98963;-82
2024/02/03 08:54:40;;;;;;;51.80;18.10;;;;;;;8.23;100.00;100048.73;106447;1252;97085;-81
2024/02/03 08:57:25;;;;;;;88.80;28.40;;;;;;;8.23;100.00;100046.59;106583;1253;97862;-81
2024/02/03 09:00:11;;;;;;;52.60;18.90;;;;;;;8.23;100.00;100049.52;106488;1253;100053;-82
2024/02/03 09:02:57;;;;;;;110.20;28.40;;;;;;;8.23;100.00;100051.11;106443;1253;99756;-81
2024/02/03 09:05:43;;;;;;;140.60;36.20;;;;;;;8.23;100.00;100055.78;106455;1258;98561;-81
2024/02/03 09:08:29;;;;;;;77.70;24.80;;;;;;;8.23;100.00;100055.42;106596;1258;96611;-82
2024/02/03 09:11:15;;;;;;;68.20;20.10;;;;;;;8.24;100.00;100049.67;106655;1257;96612;-82
2024/02/03 09:14:03;;;;;;;108.30;32.10;;;;;;;8.24;100.00;100049.08;106474;1252;101297;-81
2024/02/03 09:16:49;;;;;;;115.70;31.30;;;;;;;8.25;100.00;100047.73;106551;1251;100507;-81
2024/02/03 09:19:34;;;;;;;52.40;18.00;;;;;;;8.27;100.00;100047.91;106563;1253;98570;-81
2024/02/03 09:22:19;;;;;;;113.60;30.40;;;;;;;8.31;100.00;100048.81;106649;1253;96607;-81
2024/02/03 09:25:06;;;;;;;172.30;38.80;;;;;;;8.35;100.00;100051.14;106605;1258;97140;-81
2024/02/03 09:27:51;;;;;;;83.50;25.80;;;;;;;8.39;100.00;100044.63;106660;1253;100056;-82
2024/02/03 09:30:37;;;;;;;212.10;47.30;;;;;;;8.43;100.00;100045.73;106796;1257;109042;-80
2024/02/03 09:33:23;;;;;;;257.10;57.80;;;;;;;8.45;100.00;100038.33;106517;1257;97942;-81
2024/02/03 09:36:09;;;;;;;195.40;46.90;;;;;;;8.48;100.00;100031.70;106529;1258;97213;-81
2024/02/03 09:38:55;;;;;;;140.70;39.10;;;;;;;8.52;100.00;100026.64;106685;1256;96404;-82
2024/02/03 09:41:40;;;;;;;113.80;30.80;;;;;;;8.56;100.00;100027.21;106219;1252;100067;-84
2024/02/03 09:44:26;;;;;;;159.50;38.70;;;;;;;8.60;100.00;100021.02;106417;1253;100423;-80
2024/02/03 09:47:14;;;;;;;164.60;44.20;;;;;;;8.64;100.00;100020.60;106305;1251;98467;-84
2024/02/03 09:50:02;;;;;;;100.90;29.40;;;;;;;8.68;100.00;100021.64;106297;1259;96672;-81
2024/02/03 09:52:49;;;;;;;98.30;29.50;;;;;;;8.72;100.00;100027.20;106406;1251;97561;-81
2024/02/03 09:55:34;;;;;;;43.90;17.40;;;;;;;8.76;100.00;100029.50;106436;1252;100071;-82
2024/02/03 09:58:20;;;;;;;108.60;28.90;;;;;;;8.80;100.00;100033.52;106468;1252;99085;-79
2024/02/03 10:01:05;;;;;;;95.60;28.30;;;;;;;8.83;100.00;100035.81;106621;1256;97952;-81
2024/02/03 10:03:56;;;;;;;132.20;35.10;;;;;;;8.86;100.00;100033.30;106653;1258;96523;-79
2024/02/03 10:06:44;;;;;;;92.00;27.40;;;;;;;8.88;100.00;100018.27;106441;1254;96744;-88
2024/02/03 10:09:29;;;;;;;67.40;22.00;;;;;;;8.90;100.00;100024.39;105578;1254;99967;-77
2024/02/03 10:12:17;;;;;;;79.10;27.40;;;;;;;8.92;100.00;100024.48;105677;1259;100371;-78
2024/02/03 10:15:07;;;;;;;67.40;26.90;;;;;;;8.94;100.00;100028.86;105856;1262;97833;-82
2024/02/03 10:17:57;;;;;;;37.50;16.70;;;;;;;8.95;100.00;100027.29;105633;1261;97289;-77
2024/02/03 10:20:43;;;;;;;44.80;19.00;;;;;;;8.97;100.00;100030.27;105618;1257;96609;-78
2024/02/03 10:23:29;;;;;;;54.70;20.10;;;;;;;9.00;100.00;100022.48;105557;1258;101319;-77
2024/02/03 10:26:15;;;;;;;20.50;11.30;;;;;;;9.03;100.00;100025.09;105711;1257;99170;-78
2024/02/03 10:29:01;;;;;;;19.50;10.80;;;;;;;9.06;100.00;100028.04;105676;1259;97864;-78
2024/02/03 10:31:47;;;;;;;18.90;10.20;;;;;;;9.10;100.00;100030.39;105661;1255;96692;-78
2024/02/03 10:34:33;;;;;;;16.00;9.50;;;;;;;9.14;100.00;100036.17;105753;1259;96582;-77
2024/02/03 10:37:19;;;;;;;8.10;6.20;;;;;;;9.18;100.00;100037.41;105760;1259;100888;-78
2024/02/03 10:40:05;;;;;;;48.40;14.00;;;;;;;9.21;100.00;100030.95;105745;1255;100462;-78
2024/02/03 10:42:55;;;;;;;17.20;8.40;;;;;;;9.25;100.00;100031.92;105765;1259;99016;-78
2024/02/03 10:45:43;;;;;;;11.40;5.90;;;;;;;9.28;100.00;100028.79;105731;1257;97194;-77
2024/02/03 10:48:32;;;;;;;33.80;13.00;;;;;;;9.33;100.00;100025.90;105688;1262;96401;-78
2024/02/03 10:51:26;;;;;;;43.40;15.20;;;;;;;9.38;100.00;100032.95;105780;1259;100049;-78
2024/02/03 10:54:17;;;;;;;32.40;10.90;;;;;;;9.42;100.00;100038.81;105711;1259;100396;-77
2024/02/03 10:57:05;;;;;;;14.70;6.50;;;;;;;9.46;100.00;100035.52;105692;1257;97810;-78
2024/02/03 10:59:51;;;;;;;16.10;6.10;;;;;;;9.49;100.00;100042.79;105661;1255;97091;-78
2024/02/03 11:02:37;;;;;;;29.70;10.40;;;;;;;9.50;100.00;100043.13;105630;1257;96608;-77
2024/02/03 11:05:25;;;;;;;18.70;6.60;;;;;;;9.52;100.00;100041.29;105570;1259;100033;-77
2024/02/03 11:08:12;;;;;;;42.30;12.60;;;;;;;9.54;100.00;100042.09;105703;1257;99143;-77
2024/02/03 11:10:57;;;;;;;27.70;8.80;;;;;;;9.56;100.00;100043.33;105654;1257;97820;-77
2024/02/03 11:13:43;;;;;;;9.70;5.30;;;;;;;9.57;100.00;100049.94;105712;1259;96704;-76
2024/02/03 11:16:35;;;;;;;11.30;4.40;;;;;;;9.59;100.00;100047.60;105741;1257;97116;-77
2024/02/03 11:19:30;;;;;;;4.90;3.30;;;;;;;9.60;100.00;100051.46;105726;1259;100156;-78
2024/02/03 11:22:17;;;;;;;2.90;2.70;;;;;;;9.62;100.00;100052.23;105733;1259;99083;-77
2024/02/03 11:25:04;;;;;;;6.80;3.90;;;;;;;9.63;100.00;100044.88;105624;1257;97826;-77
2024/02/03 11:27:50;;;;;;;9.90;4.50;;;;;;;9.65;100.00;100048.51;105700;1258;96920;-77
2024/02/03 11:30:35;;;;;;;6.30;4.00;;;;;;;9.67;100.00;100044.90;105666;1255;97258;-77
2024/02/03 11:33:21;;;;;;;4.50;3.20;;;;;;;9.68;100.00;100043.66;106654;1256;101132;-78
2024/02/03 11:36:09;;;;;;;16.20;8.60;;;;;;;9.69;100.00;100045.83;106102;1259;100455;-78
2024/02/03 11:38:55;;;;;;;60.60;23.60;;;;;;;9.70;100.00;100045.91;106185;1260;98317;-78
2024/02/03 11:41:41;;;;;;;200.00;51.20;;;;;;;9.70;100.00;100038.77;106001;1262;96521;-79
2024/02/03 11:44:36;;;;;;;39.10;12.70;;;;;;;9.71;100.00;100041.35;106446;1259;97142;-84
2024/02/03 11:47:25;;;;;;;34.40;12.70;;;;;;;9.73;100.00;100049.77;106256;1260;101469;-89
2024/02/03 11:50:11;;;;;;;44.90;30.40;;;;;;;9.78;100.00;100036.77;106760;1259;100470;-88
2024/02/03 11:52:59;;;;;;;7.80;4.70;;;;;;;9.82;100.00;100038.14;106449;1257;97872;-84
2024/02/03 11:55:45;;;;;;;8.40;5.80;;;;;;;9.86;100.00;100036.53;106701;1262;96705;-86
2024/02/03 11:58:31;;;;;;;23.00;14.60;;;;;;;9.90;100.00;100030.34;106432;1255;97019;-84
2024/02/03 12:01:17;;;;;;;6.10;3.90;;;;;;;9.92;100.00;100027.17;106021;1257;100148;-87
2024/02/03 12:04:02;;;;;;;4.40;3.40;;;;;;;9.93;100.00;100029.00;106246;1256;99083;-83
2024/02/03 12:06:48;;;;;;;4.60;2.80;;;;;;;9.96;100.00;100032.27;106150;1259;97815;-82
2024/02/03 12:09:34;;;;;;;3.80;2.20;;;;;;;9.97;100.00;100035.58;106405;1260;97056;-79
2024/02/03 12:12:23;;;;;;;4.10;2.60;;;;;;;9.97;100.00;100031.75;105844;1259;96668;-82
2024/02/03 12:15:29;;;;;;;4.20;2.80;;;;;;;9.95;100.00;100032.85;106695;1259;100146;-89
2024/02/03 12:18:19;;;;;;;3.90;2.60;;;;;;;9.91;100.00;100026.40;106517;1254;100366;-85
2024/02/03 12:21:10;;;;;;;2.20;2.00;;;;;;;9.89;100.00;100029.15;106275;1260;100178;-88
2024/02/03 12:23:55;;;;;;;3.00;2.30;;;;;;;9.89;100.00;100028.89;105665;1257;96779;-76
2024/02/03 12:26:41;;;;;;;2.60;2.20;;;;;;;9.89;100.00;100027.77;105821;1259;97105;-87
2024/02/03 12:29:28;;;;;;;3.70;2.50;;;;;;;9.88;100.00;100030.90;106367;1256;99862;-81
2024/02/03 12:32:14;;;;;;;3.20;2.80;;;;;;;9.87;100.00;100025.39;106382;1257;100628;-84